Time;durP1;ratioP1;P1;durP2;ratioP2;P2;SDS_P1;SDS_P2;PMS_P1;PMS_P2;Temp;Humidity;BMP_temperature;BMP_pressure;BME280_temperature;BME280_humidity;BME280_pressure;Samples;Min_cycle;Max_cycle;Signal;HPM_P1;HPM_P2
2023/05/05 00:01:00;;;;;;;6.33;3.87;;;;;;;;;;5073024;28;20201;-87
2023/05/05 00:03:31;;;;;;;1.30;1.30;;;;;;;;;;5072653;28;20204;-87
2023/05/05 00:06:00;;;;;;;0.87;0.87;;;;;;;;;;5072534;28;20201;-87
2023/05/05 00:08:28;;;;;;;4.67;4.10;;;;;;;;;;5072951;28;20252;-87
2023/05/05 00:10:57;;;;;;;2.93;2.73;;;;;;;;;;5072711;28;20205;-87
2023/05/05 00:13:25;;;;;;;1.60;1.50;;;;;;;;;;5073158;28;20241;-88
2023/05/05 00:15:54;;;;;;;9.10;5.03;;;;;;;;;;5073028;28;20196;-88
2023/05/05 00:18:22;;;;;;;0.70;0.70;;;;;;;;;;5072641;28;20208;-88
2023/05/05 00:20:52;;;;;;;6.13;5.17;;;;;;;;;;5072865;28;20196;-88
2023/05/05 00:23:21;;;;;;;8.17;6.40;;;;;;;;;;5073020;28;20201;-88
2023/05/05 00:25:49;;;;;;;8.60;5.13;;;;;;;;;;5072436;28;20224;-88
2023/05/05 00:28:18;;;;;;;4.63;3.47;;;;;;;;;;5072620;28;20251;-88
2023/05/05 00:30:46;;;;;;;1.40;1.30;;;;;;;;;;5072955;28;20238;-88
2023/05/05 00:33:15;;;;;;;8.13;4.60;;;;;;;;;;5072209;28;20240;-88
2023/05/05 00:35:44;;;;;;;4.70;4.10;;;;;;;;;;5072146;28;20188;-88
2023/05/05 00:38:13;;;;;;;15.40;8.17;;;;;;;;;;5073074;28;20200;-88
2023/05/05 00:40:42;;;;;;;11.50;8.70;;;;;;;;;;5072440;28;20232;-87
2023/05/05 00:43:11;;;;;;;8.57;7.47;;;;;;;;;;5072249;28;20236;-88
2023/05/05 00:45:43;;;;;;;5.20;4.27;;;;;;;;;;5072398;28;20233;-88
2023/05/05 00:48:11;;;;;;;14.33;9.57;;;;;;;;;;5072472;28;20224;-87
2023/05/05 00:50:40;;;;;;;8.37;6.83;;;;;;;;;;5071911;28;20204;-87
2023/05/05 00:53:09;;;;;;;13.67;9.70;;;;;;;;;;5072237;28;20205;-87
2023/05/05 00:55:40;;;;;;;5.60;5.00;;;;;;;;;;5072183;28;20194;-87
2023/05/05 00:58:08;;;;;;;7.90;5.57;;;;;;;;;;5072184;28;20194;-87
2023/05/05 01:00:37;;;;;;;4.20;3.80;;;;;;;;;;5072279;28;20204;-88
2023/05/05 01:03:05;;;;;;;6.97;6.13;;;;;;;;;;5071999;28;20194;-87
2023/05/05 01:05:38;;;;;;;14.60;5.63;;;;;;;;;;5071661;28;20205;-87
2023/05/05 01:08:18;;;;;;;4.77;3.80;;;;;;;;;;5071871;28;20232;-87
2023/05/05 01:10:53;;;;;;;4.90;3.90;;;;;;;;;;5071676;28;20233;-87
2023/05/05 01:13:26;;;;;;;2.67;2.47;;;;;;;;;;5071704;28;20211;-87
2023/05/05 01:15:59;;;;;;;7.13;4.90;;;;;;;;;;5072170;28;20215;-88
2023/05/05 01:18:32;;;;;;;4.17;3.73;;;;;;;;;;5072223;28;20198;-87
2023/05/05 01:21:05;;;;;;;11.63;4.87;;;;;;;;;;5071273;28;20220;-87
2023/05/05 01:23:44;;;;;;;4.67;3.90;;;;;;;;;;5071567;28;20189;-88
2023/05/05 01:26:25;;;;;;;2.63;1.93;;;;;;;;;;5071672;28;20226;-88
2023/05/05 01:29:03;;;;;;;2.03;1.93;;;;;;;;;;5071547;28;20323;-87
2023/05/05 01:31:43;;;;;;;1.37;1.27;;;;;;;;;;5071776;28;20227;-88
2023/05/05 01:34:13;;;;;;;11.73;3.80;;;;;;;;;;5071573;28;20221;-88
2023/05/05 01:36:45;;;;;;;11.93;8.03;;;;;;;;;;5071416;28;20244;-88
2023/05/05 01:39:16;;;;;;;2.90;2.70;;;;;;;;;;5072098;28;20328;-88
2023/05/05 01:41:46;;;;;;;3.63;3.27;;;;;;;;;;5071132;28;20189;-88
2023/05/05 01:44:17;;;;;;;1.20;1.20;;;;;;;;;;5071503;28;20289;-87
2023/05/05 01:46:48;;;;;;;2.63;1.60;;;;;;;;;;5071718;28;20198;-88
2023/05/05 01:49:16;;;;;;;5.03;2.80;;;;;;;;;;5071395;28;20206;-88
2023/05/05 01:51:46;;;;;;;4.70;3.90;;;;;;;;;;5071282;28;20212;-88
2023/05/05 01:54:15;;;;;;;4.43;3.27;;;;;;;;;;5071389;28;20214;-88
2023/05/05 01:56:44;;;;;;;1.90;1.80;;;;;;;;;;5071579;28;20212;-88
2023/05/05 01:59:13;;;;;;;7.10;6.23;;;;;;;;;;5071543;28;20342;-88
2023/05/05 02:01:43;;;;;;;3.10;2.90;;;;;;;;;;5071696;28;20254;-88
2023/05/05 02:04:14;;;;;;;3.70;2.40;;;;;;;;;;5071505;28;20224;-88
2023/05/05 02:06:43;;;;;;;2.40;2.30;;;;;;;;;;5071254;28;20202;-88
2023/05/05 02:09:13;;;;;;;7.47;5.57;;;;;;;;;;5070694;28;20241;-88
2023/05/05 02:11:42;;;;;;;11.60;7.67;;;;;;;;;;5071355;28;20209;-88
2023/05/05 02:14:11;;;;;;;3.40;1.77;;;;;;;;;;5071111;28;20229;-88
2023/05/05 02:16:40;;;;;;;11.27;3.30;;;;;;;;;;5070872;28;20263;-88
2023/05/05 02:19:09;;;;;;;5.53;2.03;;;;;;;;;;5071505;28;20296;-88
2023/05/05 02:21:39;;;;;;;0.60;0.60;;;;;;;;;;5071292;28;20296;-88
2023/05/05 02:24:08;;;;;;;3.90;2.10;;;;;;;;;;5071136;28;20285;-88
2023/05/05 02:26:39;;;;;;;1.60;1.50;;;;;;;;;;5071059;28;20235;-88
2023/05/05 02:29:08;;;;;;;0.50;0.50;;;;;;;;;;5074680;28;20258;-88
2023/05/05 02:31:40;;;;;;;4.23;1.83;;;;;;;;;;5074768;28;20224;-88
2023/05/05 02:34:09;;;;;;;3.00;2.80;;;;;;;;;;5075000;28;20234;-88
2023/05/05 02:36:41;;;;;;;3.50;2.57;;;;;;;;;;5075258;28;20194;-88
2023/05/05 02:39:13;;;;;;;5.33;4.73;;;;;;;;;;5074797;28;20209;-88
2023/05/05 02:41:42;;;;;;;8.73;4.50;;;;;;;;;;5075037;28;20204;-88
2023/05/05 02:44:12;;;;;;;5.40;4.37;;;;;;;;;;5074674;28;20198;-88
2023/05/05 02:46:40;;;;;;;8.07;4.77;;;;;;;;;;5074507;28;20228;-88
2023/05/05 02:49:09;;;;;;;11.00;3.73;;;;;;;;;;5074460;28;20216;-88
2023/05/05 02:51:39;;;;;;;7.50;3.87;;;;;;;;;;5074396;28;20201;-88
2023/05/05 02:54:07;;;;;;;6.13;4.40;;;;;;;;;;5074836;28;20213;-88
2023/05/05 02:56:40;;;;;;;8.23;5.23;;;;;;;;;;5074338;28;20205;-88
2023/05/05 02:59:15;;;;;;;11.77;5.20;;;;;;;;;;5074369;28;20245;-88
2023/05/05 03:01:58;;;;;;;9.80;5.13;;;;;;;;;;5073873;28;20243;-88
2023/05/05 03:04:27;;;;;;;8.90;4.80;;;;;;;;;;5073865;28;20295;-88
2023/05/05 03:06:59;;;;;;;5.03;1.60;;;;;;;;;;5074188;28;20207;-88
2023/05/05 03:09:30;;;;;;;2.50;2.30;;;;;;;;;;5073802;28;20330;-88
2023/05/05 03:12:01;;;;;;;1.97;1.80;;;;;;;;;;5074146;28;20265;-88
2023/05/05 03:14:30;;;;;;;5.53;2.50;;;;;;;;;;5074009;28;20303;-88
2023/05/05 03:17:02;;;;;;;0.93;0.93;;;;;;;;;;5073964;28;20202;-88
2023/05/05 03:19:31;;;;;;;16.63;1.47;;;;;;;;;;5073989;28;20296;-88
2023/05/05 03:22:01;;;;;;;2.80;1.73;;;;;;;;;;5074505;28;20298;-88
2023/05/05 03:24:29;;;;;;;1.67;1.57;;;;;;;;;;5073678;28;20258;-88
2023/05/05 03:26:58;;;;;;;1.17;1.07;;;;;;;;;;5073923;28;20227;-88
2023/05/05 03:29:28;;;;;;;2.50;2.33;;;;;;;;;;5073753;28;20334;-88
2023/05/05 03:31:56;;;;;;;0.93;0.93;;;;;;;;;;5073837;28;20200;-88
2023/05/05 03:34:25;;;;;;;3.30;2.00;;;;;;;;;;5073405;28;20311;-88
2023/05/05 03:36:53;;;;;;;2.47;2.33;;;;;;;;;;5073716;28;20205;-87
2023/05/05 03:39:23;;;;;;;1.33;1.30;;;;;;;;;;5072504;28;20197;-88
2023/05/05 03:41:52;;;;;;;0.87;0.87;;;;;;;;;;5073389;28;20227;-88
2023/05/05 03:44:20;;;;;;;6.43;1.33;;;;;;;;;;5073619;28;20226;-88
2023/05/05 03:46:48;;;;;;;1.23;1.13;;;;;;;;;;5073616;28;20253;-88
2023/05/05 03:49:17;;;;;;;1.07;1.03;;;;;;;;;;5073471;28;20217;-88
2023/05/05 03:51:45;;;;;;;5.60;2.97;;;;;;;;;;5073630;28;20204;-87
2023/05/05 03:54:14;;;;;;;9.10;5.40;;;;;;;;;;5073590;28;20228;-88
2023/05/05 03:56:44;;;;;;;2.97;2.77;;;;;;;;;;5073349;28;20199;-88
2023/05/05 03:59:12;;;;;;;1.70;1.63;;;;;;;;;;5072703;28;20205;-88
2023/05/05 04:01:41;;;;;;;5.33;2.57;;;;;;;;;;5073717;28;20234;-88
2023/05/05 04:04:09;;;;;;;5.73;5.20;;;;;;;;;;5073237;28;20189;-87
2023/05/05 04:06:38;;;;;;;1.70;1.60;;;;;;;;;;5073129;28;20254;-88
2023/05/05 04:09:06;;;;;;;1.70;1.43;;;;;;;;;;5073872;28;20241;-89
2023/05/05 04:11:35;;;;;;;5.13;4.13;;;;;;;;;;5073708;28;20204;-88
2023/05/05 04:14:04;;;;;;;8.53;4.47;;;;;;;;;;5073064;28;20231;-88
2023/05/05 04:16:33;;;;;;;6.23;1.77;;;;;;;;;;5073289;28;20281;-89
2023/05/05 04:19:01;;;;;;;5.77;3.43;;;;;;;;;;5073112;28;20209;-88
2023/05/05 04:21:31;;;;;;;2.00;1.90;;;;;;;;;;5072687;28;20258;-89
2023/05/05 04:23:59;;;;;;;2.40;2.23;;;;;;;;;;5073261;28;20235;-89
2023/05/05 04:26:28;;;;;;;3.73;2.80;;;;;;;;;;5072802;28;20212;-89
2023/05/05 04:28:56;;;;;;;2.10;1.87;;;;;;;;;;5073081;28;20328;-88
2023/05/05 04:31:26;;;;;;;1.57;1.47;;;;;;;;;;5072887;28;20208;-88
2023/05/05 04:33:55;;;;;;;5.37;4.07;;;;;;;;;;5072511;28;20228;-89
2023/05/05 04:36:23;;;;;;;5.70;3.63;;;;;;;;;;5072784;28;20213;-88
2023/05/05 04:38:52;;;;;;;2.37;2.20;;;;;;;;;;5072461;28;20205;-88
2023/05/05 04:41:21;;;;;;;4.80;4.40;;;;;;;;;;5073200;28;20268;-89
2023/05/05 04:43:49;;;;;;;1.43;1.33;;;;;;;;;;5072520;28;20211;-88
2023/05/05 04:46:18;;;;;;;4.63;3.60;;;;;;;;;;5072265;28;20201;-88
2023/05/05 04:48:48;;;;;;;7.77;5.83;;;;;;;;;;5072377;28;20220;-90
2023/05/05 04:51:17;;;;;;;11.97;7.13;;;;;;;;;;5072412;28;20293;-88
2023/05/05 04:53:45;;;;;;;14.57;10.10;;;;;;;;;;5071990;28;20216;-88
2023/05/05 04:56:14;;;;;;;4.80;3.13;;;;;;;;;;5071884;28;20196;-88
2023/05/05 04:58:43;;;;;;;14.53;10.10;;;;;;;;;;5071972;28;20205;-88
2023/05/05 05:01:12;;;;;;;11.93;9.30;;;;;;;;;;5071900;28;20295;-89
2023/05/05 05:03:41;;;;;;;4.43;3.37;;;;;;;;;;5073290;28;20200;-90
2023/05/05 05:06:11;;;;;;;12.17;9.33;;;;;;;;;;5072346;28;20207;-89
2023/05/05 05:08:39;;;;;;;22.77;14.07;;;;;;;;;;5072358;28;20218;-89
2023/05/05 05:11:08;;;;;;;18.83;12.13;;;;;;;;;;5072161;28;20202;-89
2023/05/05 05:13:36;;;;;;;4.27;2.93;;;;;;;;;;5072418;28;20265;-89
2023/05/05 05:16:06;;;;;;;4.67;3.27;;;;;;;;;;5072607;28;20213;-89
2023/05/05 05:18:35;;;;;;;10.10;6.37;;;;;;;;;;5072350;28;20211;-89
2023/05/05 05:21:03;;;;;;;19.90;13.03;;;;;;;;;;5072618;28;20259;-89
2023/05/05 05:23:33;;;;;;;21.37;13.97;;;;;;;;;;5071713;28;20206;-89
2023/05/05 05:26:04;;;;;;;10.80;6.57;;;;;;;;;;5072097;28;20192;-89
2023/05/05 05:28:32;;;;;;;12.37;10.13;;;;;;;;;;5071968;28;20260;-89
2023/05/05 05:31:01;;;;;;;7.57;6.83;;;;;;;;;;5072498;28;20287;-89
2023/05/05 05:33:29;;;;;;;22.83;13.60;;;;;;;;;;5072365;28;20276;-89
2023/05/05 05:35:58;;;;;;;18.33;9.90;;;;;;;;;;5072114;28;20205;-88
2023/05/05 05:38:26;;;;;;;10.57;7.13;;;;;;;;;;5072502;28;20243;-88
2023/05/05 05:40:56;;;;;;;11.00;8.60;;;;;;;;;;5071719;28;20199;-88
2023/05/05 05:43:25;;;;;;;8.37;6.63;;;;;;;;;;5072075;28;20205;-89
2023/05/05 05:45:53;;;;;;;15.83;9.63;;;;;;;;;;5072063;28;20208;-89
2023/05/05 05:48:23;;;;;;;18.37;12.43;;;;;;;;;;5071732;28;20207;-88
2023/05/05 05:50:52;;;;;;;14.77;11.37;;;;;;;;;;5072085;28;20220;-88
2023/05/05 05:53:20;;;;;;;8.00;6.37;;;;;;;;;;5071898;28;20208;-89
2023/05/05 05:55:49;;;;;;;14.67;7.33;;;;;;;;;;5071465;28;20239;-88
2023/05/05 05:58:19;;;;;;;15.93;9.03;;;;;;;;;;5071766;28;20197;-89
2023/05/05 06:00:51;;;;;;;12.63;3.77;;;;;;;;;;5072006;28;20270;-89
2023/05/05 06:03:19;;;;;;;14.80;8.43;;;;;;;;;;5073849;28;20258;-88
2023/05/05 06:05:49;;;;;;;11.10;7.83;;;;;;;;;;5076157;28;20294;-89
2023/05/05 06:08:17;;;;;;;12.40;8.17;;;;;;;;;;5076169;28;20211;-88
2023/05/05 06:10:47;;;;;;;3.30;2.10;;;;;;;;;;5075549;28;20235;-89
2023/05/05 06:13:15;;;;;;;14.47;6.03;;;;;;;;;;5076150;28;20258;-89
2023/05/05 06:15:45;;;;;;;2.43;1.50;;;;;;;;;;5076146;28;20233;-89
2023/05/05 06:18:13;;;;;;;0.90;0.90;;;;;;;;;;5075385;28;20220;-89
2023/05/05 06:20:42;;;;;;;3.00;1.47;;;;;;;;;;5076047;28;20202;-89
2023/05/05 06:23:12;;;;;;;6.43;4.13;;;;;;;;;;5075997;28;20212;-89
2023/05/05 06:25:40;;;;;;;1.83;1.73;;;;;;;;;;5075454;28;20251;-89
2023/05/05 06:28:09;;;;;;;5.03;2.87;;;;;;;;;;5075519;28;20275;-89
2023/05/05 06:30:37;;;;;;;3.50;1.83;;;;;;;;;;5075482;28;20351;-89
2023/05/05 06:33:07;;;;;;;6.17;3.57;;;;;;;;;;5075733;28;20225;-89
2023/05/05 06:35:35;;;;;;;6.77;3.37;;;;;;;;;;5075435;28;20211;-89
2023/05/05 06:38:04;;;;;;;0.80;0.80;;;;;;;;;;5075890;28;20209;-88
2023/05/05 06:40:32;;;;;;;1.80;1.70;;;;;;;;;;5075993;28;20240;-88
2023/05/05 06:43:01;;;;;;;5.67;2.70;;;;;;;;;;5074602;28;20202;-88
2023/05/05 06:45:30;;;;;;;1.50;1.40;;;;;;;;;;5075246;28;20217;-88
2023/05/05 06:47:58;;;;;;;4.33;2.10;;;;;;;;;;5075825;28;20214;-88
2023/05/05 06:50:28;;;;;;;0.67;0.67;;;;;;;;;;5075580;28;20316;-88
2023/05/05 06:52:56;;;;;;;3.50;2.40;;;;;;;;;;5074476;28;20230;-84
2023/05/05 06:55:25;;;;;;;1.37;1.27;;;;;;;;;;5074510;28;20212;-84
2023/05/05 06:57:54;;;;;;;1.37;1.27;;;;;;;;;;5073905;28;20258;-85
2023/05/05 07:00:23;;;;;;;10.10;4.80;;;;;;;;;;5074522;28;20285;-84
2023/05/05 07:02:52;;;;;;;1.53;1.43;;;;;;;;;;5074312;28;20209;-84
2023/05/05 07:05:20;;;;;;;7.67;4.73;;;;;;;;;;5073676;28;20208;-85
2023/05/05 07:07:53;;;;;;;10.90;4.50;;;;;;;;;;5073924;28;20301;-85
2023/05/05 07:10:23;;;;;;;1.63;1.33;;;;;;;;;;5074862;28;20276;-89
2023/05/05 07:12:53;;;;;;;1.57;1.47;;;;;;;;;;5075401;28;20206;-90
2023/05/05 07:15:22;;;;;;;5.53;2.13;;;;;;;;;;5075495;28;20205;-89
2023/05/05 07:17:56;;;;;;;9.33;5.43;;;;;;;;;;5075111;28;20213;-89
2023/05/05 07:20:26;;;;;;;1.83;1.70;;;;;;;;;;5074943;28;20256;-90
2023/05/05 07:22:56;;;;;;;3.63;1.83;;;;;;;;;;5075391;28;20194;-90
2023/05/05 07:25:24;;;;;;;2.47;2.20;;;;;;;;;;5075257;28;20252;-89
2023/05/05 07:27:53;;;;;;;3.93;2.63;;;;;;;;;;5074590;28;20221;-89
2023/05/05 07:30:23;;;;;;;1.57;1.57;;;;;;;;;;5075467;28;20221;-89
2023/05/05 07:32:52;;;;;;;1.93;1.60;;;;;;;;;;5075051;28;20201;-89
2023/05/05 07:35:21;;;;;;;0.97;0.97;;;;;;;;;;5074822;28;20198;-89
2023/05/05 07:37:50;;;;;;;1.50;1.40;;;;;;;;;;5074768;28;20208;-89
2023/05/05 07:40:20;;;;;;;1.23;1.10;;;;;;;;;;5075126;28;20200;-90
2023/05/05 07:42:49;;;;;;;2.47;1.97;;;;;;;;;;5075639;28;20216;-90
2023/05/05 07:45:18;;;;;;;3.87;2.17;;;;;;;;;;5074636;28;20224;-89
2023/05/05 07:47:46;;;;;;;2.07;1.60;;;;;;;;;;5074781;28;20201;-89
2023/05/05 07:50:15;;;;;;;2.13;1.10;;;;;;;;;;5075152;28;20206;-90
2023/05/05 07:52:43;;;;;;;3.50;1.83;;;;;;;;;;5074753;28;20214;-89
2023/05/05 07:55:22;;;;;;;4.57;1.83;;;;;;;;;;5075227;28;20204;-90
2023/05/05 07:57:50;;;;;;;0.97;0.97;;;;;;;;;;5074966;28;20198;-89
2023/05/05 08:00:20;;;;;;;3.87;2.10;;;;;;;;;;5074085;28;20205;-89
2023/05/05 08:02:49;;;;;;;2.67;1.33;;;;;;;;;;5074517;28;20203;-89
2023/05/05 08:05:17;;;;;;;3.60;2.23;;;;;;;;;;5075554;28;20259;-89
2023/05/05 08:07:46;;;;;;;2.47;0.93;;;;;;;;;;5074029;28;20205;-89
2023/05/05 08:10:14;;;;;;;0.60;0.60;;;;;;;;;;5074170;28;20230;-88
2023/05/05 08:12:47;;;;;;;1.37;1.20;;;;;;;;;;5074974;28;20208;-89
2023/05/05 08:15:16;;;;;;;4.93;2.03;;;;;;;;;;5075048;28;20221;-89
2023/05/05 08:17:46;;;;;;;13.53;1.67;;;;;;;;;;5074799;28;20251;-90
2023/05/05 08:20:15;;;;;;;0.83;0.83;;;;;;;;;;5075614;28;20202;-90
2023/05/05 08:22:43;;;;;;;2.37;1.50;;;;;;;;;;5075426;28;20229;-89
2023/05/05 08:25:12;;;;;;;4.07;2.23;;;;;;;;;;5074676;28;20231;-89
2023/05/05 08:27:41;;;;;;;5.77;4.73;;;;;;;;;;5076126;28;20221;-89
2023/05/05 08:30:13;;;;;;;1.77;1.67;;;;;;;;;;5076039;28;20199;-89
2023/05/05 08:32:41;;;;;;;5.37;2.20;;;;;;;;;;5075696;28;20232;-89
2023/05/05 08:35:10;;;;;;;2.97;1.77;;;;;;;;;;5076210;28;20216;-90
2023/05/05 08:37:39;;;;;;;3.13;2.20;;;;;;;;;;5075812;28;20239;-89
2023/05/05 08:40:08;;;;;;;2.27;1.40;;;;;;;;;;5075862;28;20209;-89
2023/05/05 08:42:36;;;;;;;3.27;1.97;;;;;;;;;;5079426;28;20194;-89
2023/05/05 08:45:07;;;;;;;1.93;1.83;;;;;;;;;;5079567;28;20231;-89
2023/05/05 08:47:38;;;;;;;3.00;2.80;;;;;;;;;;5080227;28;20199;-91
2023/05/05 08:50:07;;;;;;;4.33;1.70;;;;;;;;;;5081246;28;20241;-91
2023/05/05 08:52:40;;;;;;;4.37;2.30;;;;;;;;;;5081416;28;20219;-90
2023/05/05 08:55:14;;;;;;;4.80;2.03;;;;;;;;;;5078363;28;20226;-90
2023/05/05 08:57:45;;;;;;;3.67;1.97;;;;;;;;;;5074813;28;20244;-90
2023/05/05 09:00:14;;;;;;;2.87;2.17;;;;;;;;;;5073858;28;20197;-89
2023/05/05 09:02:44;;;;;;;0.77;0.77;;;;;;;;;;5073358;28;20229;-89
2023/05/05 09:05:12;;;;;;;2.17;1.67;;;;;;;;;;5073913;28;20201;-89
2023/05/05 09:07:42;;;;;;;5.23;1.97;;;;;;;;;;5072840;28;20280;-89
2023/05/05 09:10:11;;;;;;;1.77;1.57;;;;;;;;;;5072305;28;20365;-89
2023/05/05 09:12:40;;;;;;;1.50;1.17;;;;;;;;;;5072316;28;20228;-89
2023/05/05 09:15:12;;;;;;;4.90;3.90;;;;;;;;;;5072717;28;20215;-88
2023/05/05 09:17:41;;;;;;;4.23;3.90;;;;;;;;;;5072639;28;20203;-89
2023/05/05 09:20:11;;;;;;;4.83;2.30;;;;;;;;;;5072284;28;20236;-89
2023/05/05 09:22:40;;;;;;;3.53;1.17;;;;;;;;;;5072740;28;20197;-89
2023/05/05 09:25:10;;;;;;;2.87;1.73;;;;;;;;;;5072844;28;20198;-89
2023/05/05 09:27:39;;;;;;;1.50;1.40;;;;;;;;;;5072186;28;20218;-89
2023/05/05 09:30:09;;;;;;;2.90;2.63;;;;;;;;;;5072820;28;20209;-89
2023/05/05 09:32:44;;;;;;;4.17;3.77;;;;;;;;;;5072505;28;20270;-89
2023/05/05 09:35:14;;;;;;;0.83;0.83;;;;;;;;;;5072301;28;20228;-88
2023/05/05 09:37:43;;;;;;;3.63;1.17;;;;;;;;;;5071882;28;20236;-89
2023/05/05 09:40:13;;;;;;;3.70;1.53;;;;;;;;;;5072867;28;20209;-89
2023/05/05 09:42:43;;;;;;;2.30;1.60;;;;;;;;;;5072699;28;20251;-88
2023/05/05 09:45:28;;;;;;;2.90;1.87;;;;;;;;;;5072938;28;20201;-89
2023/05/05 09:47:56;;;;;;;0.73;0.73;;;;;;;;;;5072902;28;20204;-90
2023/05/05 09:50:31;;;;;;;1.00;1.00;;;;;;;;;;5072521;28;20297;-89
2023/05/05 09:53:00;;;;;;;3.27;1.77;;;;;;;;;;5072250;28;20217;-89
2023/05/05 09:55:30;;;;;;;3.00;2.50;;;;;;;;;;5072766;28;20254;-88
2023/05/05 09:58:17;;;;;;;2.37;2.17;;;;;;;;;;5071881;28;20302;-91
2023/05/05 10:00:46;;;;;;;4.03;1.67;;;;;;;;;;5072668;28;20205;-89
2023/05/05 10:03:15;;;;;;;4.17;1.93;;;;;;;;;;5072316;28;20204;-88
2023/05/05 10:05:52;;;;;;;4.77;2.30;;;;;;;;;;5072168;28;20209;-89
2023/05/05 10:08:21;;;;;;;3.70;1.83;;;;;;;;;;5071859;28;20198;-89
2023/05/05 10:10:53;;;;;;;1.20;1.10;;;;;;;;;;5072378;28;20295;-88
2023/05/05 10:13:22;;;;;;;4.80;1.67;;;;;;;;;;5071793;28;20219;-88
2023/05/05 10:15:52;;;;;;;1.87;1.53;;;;;;;;;;5071797;28;20208;-89
2023/05/05 10:18:23;;;;;;;1.37;1.37;;;;;;;;;;5072350;28;20205;-89
2023/05/05 10:20:57;;;;;;;0.90;0.90;;;;;;;;;;5071502;28;20209;-89
2023/05/05 10:23:28;;;;;;;1.80;1.70;;;;;;;;;;5072000;28;20227;-88
2023/05/05 10:26:01;;;;;;;1.40;1.30;;;;;;;;;;5071413;28;20214;-88
2023/05/05 10:28:32;;;;;;;4.10;3.10;;;;;;;;;;5071449;28;20229;-89
2023/05/05 10:31:02;;;;;;;3.10;1.77;;;;;;;;;;5072170;28;20207;-89
2023/05/05 10:33:46;;;;;;;8.07;4.70;;;;;;;;;;5071640;28;20272;-89
2023/05/05 10:36:17;;;;;;;2.13;2.03;;;;;;;;;;5072182;28;20203;-89
2023/05/05 10:38:46;;;;;;;1.17;1.10;;;;;;;;;;5071837;28;20191;-88
2023/05/05 10:41:14;;;;;;;1.83;1.20;;;;;;;;;;5072153;28;20265;-89
2023/05/05 10:43:43;;;;;;;0.70;0.70;;;;;;;;;;5072101;28;20200;-89
2023/05/05 10:46:11;;;;;;;1.17;1.10;;;;;;;;;;5072419;28;20229;-89
2023/05/05 10:48:43;;;;;;;7.43;2.50;;;;;;;;;;5073179;28;20299;-89
2023/05/05 10:51:24;;;;;;;2.10;1.37;;;;;;;;;;5075862;28;20206;-89
2023/05/05 10:54:10;;;;;;;1.23;1.13;;;;;;;;;;5074860;28;20204;-89
2023/05/05 10:56:41;;;;;;;1.90;1.60;;;;;;;;;;5075991;28;20241;-89
2023/05/05 10:59:28;;;;;;;2.07;1.57;;;;;;;;;;5076212;28;20199;-89
2023/05/05 11:01:57;;;;;;;1.97;1.43;;;;;;;;;;5075154;28;20303;-89
2023/05/05 11:04:28;;;;;;;11.80;3.97;;;;;;;;;;5075728;28;20204;-89
2023/05/05 11:07:16;;;;;;;1.30;1.20;;;;;;;;;;5075984;28;20282;-89
2023/05/05 11:09:56;;;;;;;1.87;1.73;;;;;;;;;;5074865;28;20216;-89
2023/05/05 11:12:24;;;;;;;0.60;0.60;;;;;;;;;;5075419;28;20225;-89
2023/05/05 11:15:12;;;;;;;1.70;1.57;;;;;;;;;;5074903;28;20205;-88
2023/05/05 11:17:50;;;;;;;1.33;1.23;;;;;;;;;;5075049;28;20205;-89
2023/05/05 11:20:19;;;;;;;2.43;1.27;;;;;;;;;;5074720;28;20213;-88
2023/05/05 11:23:06;;;;;;;2.23;1.57;;;;;;;;;;5075046;28;20190;-88
2023/05/05 11:25:50;;;;;;;0.80;0.80;;;;;;;;;;5074590;28;20197;-88
2023/05/05 11:28:20;;;;;;;1.50;1.20;;;;;;;;;;5075175;28;20220;-86
2023/05/05 11:31:06;;;;;;;1.67;1.50;;;;;;;;;;5074554;28;20206;-89
2023/05/05 11:33:35;;;;;;;1.90;1.43;;;;;;;;;;5073815;28;20227;-89
2023/05/05 11:36:05;;;;;;;1.30;1.13;;;;;;;;;;5075009;28;20220;-89
2023/05/05 11:38:40;;;;;;;3.23;2.17;;;;;;;;;;5074316;28;20203;-89
2023/05/05 11:41:13;;;;;;;1.93;1.83;;;;;;;;;;5074472;28;20263;-89
2023/05/05 11:43:42;;;;;;;7.00;1.53;;;;;;;;;;5075181;28;20207;-89
2023/05/05 11:46:11;;;;;;;3.00;1.90;;;;;;;;;;5074521;28;20194;-89
2023/05/05 11:48:45;;;;;;;1.90;1.17;;;;;;;;;;5074174;28;20244;-89
2023/05/05 11:51:14;;;;;;;1.50;1.40;;;;;;;;;;5073678;28;20216;-86
2023/05/05 11:53:43;;;;;;;5.67;2.03;;;;;;;;;;5073639;28;20227;-87
2023/05/05 11:56:17;;;;;;;1.60;1.33;;;;;;;;;;5072953;28;20227;-86
2023/05/05 11:58:46;;;;;;;1.50;1.40;;;;;;;;;;5073987;28;20235;-89
2023/05/05 12:01:15;;;;;;;2.13;1.13;;;;;;;;;;5073415;28;20203;-90
2023/05/05 12:03:44;;;;;;;0.90;0.90;;;;;;;;;;5073573;28;20201;-89
2023/05/05 12:06:13;;;;;;;2.23;1.90;;;;;;;;;;5074314;28;20221;-90
2023/05/05 12:08:42;;;;;;;8.40;2.80;;;;;;;;;;5073315;28;20197;-89
2023/05/05 12:11:11;;;;;;;1.27;1.17;;;;;;;;;;5073525;28;20299;-89
2023/05/05 12:13:41;;;;;;;8.83;3.10;;;;;;;;;;5073911;28;20253;-89
2023/05/05 12:16:10;;;;;;;3.50;2.50;;;;;;;;;;5073974;28;20295;-90
2023/05/05 12:18:38;;;;;;;0.77;0.70;;;;;;;;;;5073926;28;20228;-89
2023/05/05 12:21:14;;;;;;;1.47;1.40;;;;;;;;;;5073753;28;20195;-89
2023/05/05 12:23:43;;;;;;;6.53;2.80;;;;;;;;;;5073760;28;20235;-89
2023/05/05 12:26:25;;;;;;;1.90;1.23;;;;;;;;;;5073546;28;20197;-90
2023/05/05 12:28:55;;;;;;;1.70;1.17;;;;;;;;;;5073638;28;20197;-89
2023/05/05 12:31:23;;;;;;;1.30;1.30;;;;;;;;;;5073700;28;20251;-89
2023/05/05 12:33:52;;;;;;;0.70;0.70;;;;;;;;;;5073022;28;20225;-89
2023/05/05 12:36:21;;;;;;;2.07;0.77;;;;;;;;;;5073408;28;20206;-89
2023/05/05 12:38:50;;;;;;;1.53;1.20;;;;;;;;;;5073775;28;20259;-89
2023/05/05 12:41:20;;;;;;;4.67;2.67;;;;;;;;;;5072878;28;20365;-90
2023/05/05 12:43:48;;;;;;;0.50;0.50;;;;;;;;;;5073076;28;20197;-89
2023/05/05 12:46:18;;;;;;;1.20;1.03;;;;;;;;;;5072989;28;20225;-89
2023/05/05 12:48:47;;;;;;;9.33;2.30;;;;;;;;;;5073391;28;20223;-90
2023/05/05 12:51:19;;;;;;;0.50;0.50;;;;;;;;;;5073494;28;20199;-90
2023/05/05 12:53:48;;;;;;;6.00;1.33;;;;;;;;;;5073339;28;20224;-89
2023/05/05 12:56:30;;;;;;;1.53;1.43;;;;;;;;;;5073169;28;20193;-89
2023/05/05 12:58:58;;;;;;;3.10;2.13;;;;;;;;;;5072262;28;20205;-89
2023/05/05 13:01:28;;;;;;;2.03;1.93;;;;;;;;;;5073010;28;20237;-90
2023/05/05 13:04:10;;;;;;;1.73;1.63;;;;;;;;;;5073233;28;20202;-89
2023/05/05 13:06:39;;;;;;;4.93;2.23;;;;;;;;;;5072550;28;20299;-90
2023/05/05 13:09:08;;;;;;;2.43;1.10;;;;;;;;;;5072664;28;20194;-89
2023/05/05 13:11:37;;;;;;;1.50;1.03;;;;;;;;;;5072187;28;20239;-89
2023/05/05 13:14:08;;;;;;;0.70;0.70;;;;;;;;;;5072365;28;20220;-89
2023/05/05 13:16:37;;;;;;;0.70;0.70;;;;;;;;;;5072066;28;20218;-90
2023/05/05 13:19:06;;;;;;;2.33;1.43;;;;;;;;;;5072240;28;20275;-89
2023/05/05 13:21:35;;;;;;;1.17;1.07;;;;;;;;;;5071897;28;20199;-89
2023/05/05 13:24:03;;;;;;;1.70;1.60;;;;;;;;;;5072657;28;20201;-89
2023/05/05 13:26:52;;;;;;;0.83;0.83;;;;;;;;;;5072578;28;20218;-89
2023/05/05 13:29:22;;;;;;;0.70;0.70;;;;;;;;;;5072027;28;20218;-89
2023/05/05 13:31:59;;;;;;;1.87;1.77;;;;;;;;;;5072240;28;20251;-89
2023/05/05 13:34:27;;;;;;;3.17;1.60;;;;;;;;;;5072603;28;20214;-89
2023/05/05 13:36:56;;;;;;;0.60;0.60;;;;;;;;;;5071852;28;20195;-88
2023/05/05 13:39:25;;;;;;;0.70;0.70;;;;;;;;;;5071972;28;20198;-89
2023/05/05 13:41:54;;;;;;;5.53;2.00;;;;;;;;;;5071906;28;20222;-88
2023/05/05 13:44:28;;;;;;;3.47;1.27;;;;;;;;;;5072146;28;20206;-88
2023/05/05 13:46:56;;;;;;;0.60;0.60;;;;;;;;;;5071477;28;20190;-89
2023/05/05 13:49:29;;;;;;;5.30;2.07;;;;;;;;;;5072565;28;20233;-89
2023/05/05 13:51:58;;;;;;;3.07;1.70;;;;;;;;;;5072025;28;20205;-89
2023/05/05 13:54:26;;;;;;;6.17;2.20;;;;;;;;;;5071509;28;20225;-88
2023/05/05 13:56:56;;;;;;;6.03;2.40;;;;;;;;;;5072017;28;20220;-89
2023/05/05 13:59:26;;;;;;;10.60;2.60;;;;;;;;;;5072149;28;20198;-89
2023/05/05 14:01:54;;;;;;;6.40;2.07;;;;;;;;;;5071183;28;20248;-89
2023/05/05 14:04:23;;;;;;;2.47;2.20;;;;;;;;;;5071882;28;20190;-88
2023/05/05 14:06:57;;;;;;;10.70;2.27;;;;;;;;;;5072048;28;20225;-89
2023/05/05 14:09:25;;;;;;;1.27;1.17;;;;;;;;;;5071316;28;20201;-89
2023/05/05 14:11:54;;;;;;;0.50;0.50;;;;;;;;;;5071798;28;20197;-89
2023/05/05 14:14:22;;;;;;;4.50;2.17;;;;;;;;;;5071598;28;20218;-89
2023/05/05 14:16:51;;;;;;;2.13;1.27;;;;;;;;;;5070881;28;20195;-88
2023/05/05 14:19:20;;;;;;;1.67;1.27;;;;;;;;;;5072089;28;20206;-88
2023/05/05 14:21:48;;;;;;;4.07;2.23;;;;;;;;;;5071703;28;20284;-88
2023/05/05 14:24:18;;;;;;;2.57;1.77;;;;;;;;;;5073407;28;20292;-88
2023/05/05 14:26:47;;;;;;;4.37;2.83;;;;;;;;;;5075186;28;20223;-88
2023/05/05 14:29:15;;;;;;;2.30;2.10;;;;;;;;;;5075548;28;20228;-88
2023/05/05 14:31:44;;;;;;;4.63;3.13;;;;;;;;;;5075394;28;20198;-88
2023/05/05 14:34:12;;;;;;;3.33;2.23;;;;;;;;;;5075208;28;20221;-88
2023/05/05 14:36:41;;;;;;;4.47;3.17;;;;;;;;;;5075060;28;20194;-88
2023/05/05 14:39:10;;;;;;;6.20;4.20;;;;;;;;;;5075031;28;20256;-87
2023/05/05 14:41:40;;;;;;;3.53;3.23;;;;;;;;;;5074714;28;20208;-87
2023/05/05 14:44:09;;;;;;;7.27;4.73;;;;;;;;;;5074743;28;20206;-87
2023/05/05 14:46:37;;;;;;;7.63;3.80;;;;;;;;;;5074937;28;20205;-88
2023/05/05 14:49:06;;;;;;;7.13;4.53;;;;;;;;;;5074936;28;20205;-88
2023/05/05 14:51:34;;;;;;;9.70;5.90;;;;;;;;;;5074854;28;20263;-88
2023/05/05 14:54:02;;;;;;;4.17;3.60;;;;;;;;;;5074779;28;20230;-88
2023/05/05 14:56:40;;;;;;;5.90;4.53;;;;;;;;;;5074828;28;20201;-88
2023/05/05 14:59:09;;;;;;;4.93;3.87;;;;;;;;;;5075099;28;20309;-88